createdAt,value
2022-11-24T00:03:27.443Z,99821.06
2022-11-24T00:07:28.999Z,99824.38
2022-11-24T00:11:32.621Z,99828.66
2022-11-24T00:15:34.158Z,99832.78
2022-11-24T00:19:35.660Z,99829.94
2022-11-24T00:23:38.070Z,99839.31
2022-11-24T00:27:39.570Z,99842.63
2022-11-24T00:31:42.248Z,99843.34
2022-11-24T00:35:43.734Z,99839.88
2022-11-24T00:39:45.210Z,99845.81
2022-11-24T00:43:46.757Z,99853.75
2022-11-24T00:47:48.249Z,99862.66
2022-11-24T00:51:49.740Z,99854.59
2022-11-24T00:55:52.108Z,99859.75
2022-11-24T00:59:53.566Z,99883.66
2022-11-24T01:03:55.682Z,99889.78
2022-11-24T01:07:57.187Z,99893.28
2022-11-24T01:12:01.480Z,99899.44
2022-11-24T01:16:03.190Z,99898.56
2022-11-24T01:20:05.202Z,99903.13
2022-11-24T01:24:07.160Z,99911.94
2022-11-24T01:28:08.964Z,99918.13
2022-11-24T01:32:10.451Z,99926.09
2022-11-24T01:36:12.018Z,99926.38
2022-11-24T01:40:13.526Z,99940.09
2022-11-24T01:44:27.204Z,99941.09
2022-11-24T01:48:34.634Z,99943.75
2022-11-24T01:52:47.592Z,99944.78
2022-11-24T01:56:53.433Z,99949.16
2022-11-24T02:00:55.132Z,99954.16
2022-11-24T02:05:00.268Z,99947.44
2022-11-24T02:09:24.085Z,99956.94
2022-11-24T02:13:25.660Z,99945.94
2022-11-24T02:17:27.206Z,99947.56
2022-11-24T02:21:28.756Z,99935.59
2022-11-24T02:25:55.117Z,99944.50
2022-11-24T02:29:56.643Z,99941.38
2022-11-24T02:33:58.327Z,99948.97
2022-11-24T02:37:59.909Z,99938.75
2022-11-24T02:42:12.920Z,99948.72
2022-11-24T02:46:14.536Z,99948.56
2022-11-24T02:50:16.398Z,99950.34
2022-11-24T02:54:17.867Z,99944.47
2022-11-24T02:58:19.489Z,99941.84
2022-11-24T03:02:21.187Z,99954.72
2022-11-24T03:06:22.738Z,99962.72
2022-11-24T03:10:24.504Z,99952.63
2022-11-24T03:14:26.059Z,99964.63
2022-11-24T03:18:27.550Z,99952.81
2022-11-24T03:22:29.064Z,99956.44
2022-11-24T03:26:30.686Z,99954.06
2022-11-24T03:30:32.362Z,99957.56
2022-11-24T03:34:34.036Z,99948.22
2022-11-24T03:38:36.076Z,99950.94
2022-11-24T03:42:37.600Z,99949.91
2022-11-24T03:46:39.204Z,99962.22
2022-11-24T03:50:40.763Z,99970.38
2022-11-24T03:54:42.398Z,99972.94
2022-11-24T03:58:43.904Z,99984.28
2022-11-24T04:02:45.497Z,99985.41
2022-11-24T04:06:47.035Z,99972.03
2022-11-24T04:10:53.598Z,99973.94
2022-11-24T04:14:55.118Z,99978.28
2022-11-24T04:18:56.657Z,99967.38
2022-11-24T04:22:58.234Z,99975.03
2022-11-24T04:26:59.752Z,99977.41
2022-11-24T04:31:05.679Z,99974.88
2022-11-24T04:35:08.424Z,99983.31
2022-11-24T04:39:23.849Z,99975.66
2022-11-24T04:43:28.101Z,100000.31
2022-11-24T04:47:29.643Z,100002.91
2022-11-24T04:51:31.710Z,99991.06
2022-11-24T04:55:33.252Z,100001.38
2022-11-24T04:59:34.752Z,100006.47
2022-11-24T05:03:36.934Z,100011.56
2022-11-24T05:07:38.536Z,99998.72
2022-11-24T05:11:40.107Z,100013.94
2022-11-24T05:15:42.162Z,100017.31
2022-11-24T05:19:43.759Z,100021.63
2022-11-24T05:23:45.371Z,100027.78
2022-11-24T05:27:47.173Z,100032.22
2022-11-24T05:31:48.930Z,100027.22
2022-11-24T05:35:50.831Z,100026.53
2022-11-24T05:39:54.559Z,100036.75
2022-11-24T05:43:56.308Z,100041.91
2022-11-24T05:48:05.136Z,100036.78
2022-11-24T05:52:06.609Z,100054.63
2022-11-24T05:56:08.426Z,100059.78
2022-11-24T06:00:10.617Z,100052.13
2022-11-24T06:04:15.224Z,100062.41
2022-11-24T06:08:16.873Z,100053.13
2022-11-24T06:12:18.511Z,100062.56
2022-11-24T06:16:20.226Z,100071.00
2022-11-24T06:20:22.577Z,100090.56
2022-11-24T06:24:24.238Z,100080.06
2022-11-24T06:28:26.356Z,100076.41
2022-11-24T06:32:27.952Z,100087.56
2022-11-24T06:36:29.479Z,100094.28
2022-11-24T06:40:31.036Z,100092.53
2022-11-24T06:44:32.903Z,100095.00
2022-11-24T06:48:34.634Z,100091.53
2022-11-24T06:52:36.188Z,100098.97
2022-11-24T06:56:37.769Z,100104.00
2022-11-24T07:00:39.587Z,100102.34
2022-11-24T07:04:41.263Z,100109.19
2022-11-24T07:08:43.666Z,100115.97
2022-11-24T07:12:45.603Z,100121.03
2022-11-24T07:16:47.361Z,100124.50
2022-11-24T07:20:49.060Z,100136.53
2022-11-24T07:24:50.642Z,100137.50
2022-11-24T07:28:52.218Z,100151.97
2022-11-24T07:33:03.796Z,100148.72
2022-11-24T07:37:05.638Z,100169.25
2022-11-24T07:41:09.647Z,100168.50
2022-11-24T07:45:11.232Z,100182.28
2022-11-24T07:49:12.880Z,100188.41
2022-11-24T07:53:14.553Z,100182.38
2022-11-24T07:57:16.147Z,100184.06
2022-11-24T08:01:18.537Z,100208.84
2022-11-24T08:05:20.415Z,100205.47
2022-11-24T08:09:21.935Z,100215.69
2022-11-24T08:13:23.453Z,100215.88
2022-11-24T08:17:25.532Z,100221.88
2022-11-24T08:21:27.364Z,100225.56
2022-11-24T08:25:32.362Z,100238.63
2022-11-24T08:29:34.061Z,100235.53
2022-11-24T08:33:36.065Z,100230.78
2022-11-24T08:37:37.714Z,100225.84
2022-11-24T08:41:39.247Z,100234.19
2022-11-24T08:45:41.872Z,100238.88
2022-11-24T08:49:43.653Z,100246.22
2022-11-24T08:53:45.270Z,100253.56
2022-11-24T08:57:46.955Z,100261.03
2022-11-24T09:01:49.457Z,100274.69
2022-11-24T09:05:53.275Z,100276.78
2022-11-24T09:09:54.856Z,100281.69
2022-11-24T09:13:56.909Z,100279.75
2022-11-24T09:17:58.461Z,100286.44
2022-11-24T09:22:00.014Z,100287.00
2022-11-24T09:26:10.806Z,100297.53
2022-11-24T09:30:13.021Z,100304.78
2022-11-24T09:34:15.571Z,100302.41
2022-11-24T09:38:17.071Z,100302.59
2022-11-24T09:42:46.923Z,100315.50
2022-11-24T09:47:11.647Z,100319.75
2022-11-24T09:51:15.024Z,100328.16
2022-11-24T09:55:28.164Z,100327.22
2022-11-24T09:59:29.760Z,100333.06
2022-11-24T10:03:45.188Z,100346.75
2022-11-24T10:08:06.997Z,100339.44
2022-11-24T10:12:33.494Z,100335.38
2022-11-24T10:17:06.004Z,100332.34
2022-11-24T10:21:10.532Z,100338.50
2022-11-24T10:25:24.929Z,100340.41
2022-11-24T10:29:41.982Z,100326.34
2022-11-24T10:33:43.911Z,100328.06
2022-11-24T10:38:10.120Z,100332.25
2022-11-24T10:42:26.524Z,100341.00
2022-11-24T10:46:31.404Z,100341.19
2022-11-24T10:50:41.268Z,100341.94
2022-11-24T10:55:03.583Z,100347.22
2022-11-24T10:59:20.758Z,100340.44
2022-11-24T11:03:47.671Z,100334.91
2022-11-24T11:07:49.358Z,100332.56
2022-11-24T11:11:53.610Z,100344.50
2022-11-24T11:15:57.149Z,100340.13
2022-11-24T11:20:15.553Z,100349.66
2022-11-24T11:24:18.381Z,100361.34
2022-11-24T11:28:29.478Z,100361.34
2022-11-24T11:36:56.084Z,100350.69
2022-11-24T11:40:57.780Z,100355.47
2022-11-24T11:45:06.488Z,100362.13
2022-11-24T11:49:12.773Z,100373.16
2022-11-24T11:53:25.506Z,100369.56
2022-11-24T11:57:59.329Z,100356.59
2022-11-24T12:02:19.128Z,100366.69
2022-11-24T12:06:42.330Z,100355.56
2022-11-24T12:11:22.109Z,100368.09
2022-11-24T12:15:43.941Z,100369.34
2022-11-24T12:20:14.306Z,100380.56
2022-11-24T12:24:27.720Z,100386.69
2022-11-24T12:28:57.204Z,100387.63
2022-11-24T12:33:26.299Z,100390.28
2022-11-24T12:37:47.276Z,100394.09
2022-11-24T12:41:57.680Z,100389.66
2022-11-24T12:46:12.495Z,100392.34
2022-11-24T12:50:27.892Z,100383.66
2022-11-24T12:54:38.615Z,100382.03
2022-11-24T12:58:45.791Z,100372.97
2022-11-24T13:03:00.580Z,100380.75
2022-11-24T13:07:16.390Z,100385.09
2022-11-24T13:11:20.890Z,100392.44
2022-11-24T13:15:43.820Z,100390.56
2022-11-24T13:19:44.300Z,100393.66
2022-11-24T13:23:57.170Z,100403.16
2022-11-24T13:28:00.418Z,100409.22
2022-11-24T13:32:05.086Z,100401.81
2022-11-24T13:36:09.407Z,100401.19
2022-11-24T13:40:13.996Z,100412.19
2022-11-24T13:44:15.525Z,100410.41
2022-11-24T13:48:20.204Z,100417.25
2022-11-24T13:52:40.290Z,100407.59
2022-11-24T13:56:42.197Z,100392.22
2022-11-24T14:01:13.136Z,100398.94
2022-11-24T14:05:22.584Z,100399.91
2022-11-24T14:09:28.628Z,100403.47
2022-11-24T14:13:32.390Z,100404.81
2022-11-24T14:17:37.539Z,100396.88
2022-11-24T14:21:41.391Z,100395.06
2022-11-24T14:25:49.353Z,100394.81
2022-11-24T14:29:59.080Z,100393.66
2022-11-24T14:34:30.826Z,100400.13
2022-11-24T14:38:32.438Z,100410.22
2022-11-24T14:42:33.999Z,100410.97
2022-11-24T14:46:36.257Z,100414.25
2022-11-24T14:50:37.811Z,100416.81
2022-11-24T14:54:50.999Z,100415.81
2022-11-24T14:58:56.806Z,100418.16
2022-11-24T15:03:01.040Z,100417.97
2022-11-24T15:07:04.773Z,100422.91
2022-11-24T15:11:07.640Z,100420.94
2022-11-24T15:15:15.374Z,100435.16
2022-11-24T15:19:17.055Z,100433.25
2022-11-24T15:23:28.697Z,100438.19
2022-11-24T15:27:31.336Z,100437.31
2022-11-24T15:31:33.014Z,100441.22
2022-11-24T15:35:34.614Z,100451.56
2022-11-24T15:39:36.246Z,100452.25
2022-11-24T15:43:41.342Z,100444.88
2022-11-24T15:47:42.985Z,100448.66
2022-11-24T15:51:46.071Z,100447.25
2022-11-24T15:55:48.511Z,100456.31
2022-11-24T15:59:50.224Z,100460.25
2022-11-24T16:03:51.716Z,100464.97
2022-11-24T16:07:53.359Z,100462.81
2022-11-24T16:11:55.038Z,100465.19
2022-11-24T16:15:56.665Z,100475.44
2022-11-24T16:20:00.801Z,100477.06
2022-11-24T16:24:02.680Z,100470.91
2022-11-24T16:28:04.512Z,100474.06
2022-11-24T16:32:06.228Z,100484.22
2022-11-24T16:36:08.413Z,100468.56
2022-11-24T16:40:10.373Z,100460.72
2022-11-24T16:44:11.962Z,100470.94
2022-11-24T16:48:13.546Z,100473.31
2022-11-24T16:52:16.200Z,100473.13
2022-11-24T16:56:18.050Z,100471.84
2022-11-24T17:00:19.860Z,100468.91
2022-11-24T17:04:21.532Z,100472.22
2022-11-24T17:08:23.171Z,100473.00
2022-11-24T17:12:24.704Z,100471.13
2022-11-24T17:16:27.197Z,100474.56
2022-11-24T17:20:31.290Z,100482.97
2022-11-24T17:24:33.028Z,100491.22
2022-11-24T17:28:36.332Z,100481.56
2022-11-24T17:32:38.249Z,100494.78
2022-11-24T17:36:41.413Z,100491.75
2022-11-24T17:40:47.722Z,100500.00
2022-11-24T17:44:49.224Z,100497.44
2022-11-24T17:48:50.792Z,100499.19
2022-11-24T17:52:52.749Z,100501.78
2022-11-24T17:56:54.279Z,100502.69
2022-11-24T18:00:56.527Z,100506.88
2022-11-24T18:04:58.184Z,100510.34
2022-11-24T18:08:59.863Z,100516.97
2022-11-24T18:13:02.099Z,100515.97
2022-11-24T18:17:04.289Z,100523.41
2022-11-24T18:21:06.609Z,100510.38
2022-11-24T18:25:08.484Z,100505.13
2022-11-24T18:29:11.311Z,100506.69
2022-11-24T18:33:13.111Z,100514.09
2022-11-24T18:37:16.322Z,100511.28
2022-11-24T18:41:18.585Z,100514.28
2022-11-24T18:45:20.093Z,100507.28
2022-11-24T18:49:21.624Z,100504.53
2022-11-24T18:53:25.474Z,100509.41
2022-11-24T18:57:27.029Z,100503.22
2022-11-24T19:01:29.382Z,100504.66
2022-11-24T19:05:31.102Z,100503.66
2022-11-24T19:09:32.699Z,100502.78
2022-11-24T19:13:34.291Z,100496.81
2022-11-24T19:17:35.800Z,100494.03
2022-11-24T19:21:38.960Z,100496.34
2022-11-24T19:25:40.608Z,100497.41
2022-11-24T19:29:44.108Z,100495.13
2022-11-24T19:33:45.928Z,100487.09
2022-11-24T19:37:47.469Z,100490.69
2022-11-24T19:41:49.018Z,100499.13
2022-11-24T19:45:50.669Z,100499.22
2022-11-24T19:49:52.225Z,100484.63
2022-11-24T19:53:54.194Z,100488.72
2022-11-24T19:57:55.693Z,100488.44
2022-11-24T20:01:57.754Z,100488.84
2022-11-24T20:05:59.578Z,100478.47
2022-11-24T20:10:07.362Z,100477.28
2022-11-24T20:14:13.876Z,100492.44
2022-11-24T20:18:15.470Z,100482.22
2022-11-24T20:22:17.010Z,100489.00
2022-11-24T20:26:22.853Z,100500.94
2022-11-24T20:30:24.388Z,100506.94
2022-11-24T20:34:27.002Z,100501.91
2022-11-24T20:38:30.025Z,100506.94
2022-11-24T20:42:31.824Z,100509.47
2022-11-24T20:46:35.527Z,100505.75
2022-11-24T20:50:38.053Z,100508.72
2022-11-24T20:54:39.662Z,100508.25
2022-11-24T20:58:41.458Z,100515.41
2022-11-24T21:02:43.126Z,100499.97
2022-11-24T21:06:44.857Z,100506.59
2022-11-24T21:10:57.560Z,100514.00
2022-11-24T21:14:59.152Z,100511.16
2022-11-24T21:19:04.422Z,100508.47
2022-11-24T21:23:06.010Z,100507.44
2022-11-24T21:27:07.636Z,100514.78
2022-11-24T21:31:15.703Z,100517.78
2022-11-24T21:35:17.290Z,100520.09
2022-11-24T21:39:19.045Z,100523.34
2022-11-24T21:43:20.664Z,100518.81
2022-11-24T21:47:22.248Z,100521.22
2022-11-24T21:51:23.866Z,100520.34
2022-11-24T21:55:25.488Z,100514.13
2022-11-24T21:59:27.024Z,100514.69
2022-11-24T22:03:28.846Z,100520.34
2022-11-24T22:07:33.642Z,100526.25
2022-11-24T22:11:35.254Z,100518.44
2022-11-24T22:15:36.760Z,100518.19
2022-11-24T22:19:38.257Z,100516.19
2022-11-24T22:23:40.337Z,100508.41
2022-11-24T22:27:41.959Z,100515.25
2022-11-24T22:31:43.663Z,100514.47
2022-11-24T22:35:55.683Z,100512.69
2022-11-24T22:39:57.263Z,100508.31
2022-11-24T22:43:58.901Z,100515.78
2022-11-24T22:48:00.430Z,100512.38
2022-11-24T22:52:02.073Z,100527.78
2022-11-24T22:56:06.140Z,100527.78
2022-11-24T23:00:08.374Z,100522.72
2022-11-24T23:04:10.136Z,100513.56
2022-11-24T23:08:12.056Z,100525.25
2022-11-24T23:12:13.821Z,100520.88
2022-11-24T23:16:17.801Z,100524.38
2022-11-24T23:20:19.352Z,100524.38
2022-11-24T23:24:20.950Z,100529.38
2022-11-24T23:28:22.463Z,100533.69
2022-11-24T23:32:24.075Z,100522.38
2022-11-24T23:36:26.532Z,100533.44
2022-11-24T23:40:28.091Z,100527.53
2022-11-24T23:44:29.663Z,100529.38
2022-11-24T23:48:31.857Z,100520.00
2022-11-24T23:52:33.797Z,100503.63
2022-11-24T23:56:36.045Z,100504.88
